< < Back
Terminal Aerodrome Forecast


Current Version              Previous Versions:   1  2  3  4  5  6  7  8  9  

Terminal Aerodrome Forecast

531
FTUS42 KGSP 232300
TAFHKY
TAF
KHKY 232335Z 2400/2424 34010KT P6SM FEW250
     FM240300 02005KT P6SM SKC
     FM241500 12006KT P6SM FEW250
     FM241800 19008KT P6SM FEW250=

Latest METAR

562
SAUS70 KWBC 242000 RRH
MTRHKY
METAR KHKY 241953Z 23007KT 10SM CLR 21/02 A3000 RMK AO2 SLP143
T02110022


USA.gov is the U.S. government's official web portal to all federal, state and local government web resources and services.